createdAt,value
2023-04-18T00:00:10.568Z,8.89
2023-04-18T00:02:44.026Z,8.86
2023-04-18T00:05:18.032Z,8.84
2023-04-18T00:07:45.191Z,8.82
2023-04-18T00:10:12.508Z,8.80
2023-04-18T00:12:39.628Z,8.78
2023-04-18T00:15:09.448Z,8.74
2023-04-18T00:17:39.808Z,8.68
2023-04-18T00:20:11.215Z,8.67
2023-04-18T00:22:42.902Z,8.63
2023-04-18T00:25:11.073Z,8.60
2023-04-18T00:27:41.797Z,8.58
2023-04-18T00:30:09.725Z,8.55
2023-04-18T00:32:38.277Z,8.53
2023-04-18T00:35:05.949Z,8.51
2023-04-18T00:37:32.935Z,8.45
2023-04-18T00:39:59.700Z,8.42
2023-04-18T00:42:28.882Z,8.36
2023-04-18T00:44:55.728Z,8.32
2023-04-18T00:47:22.552Z,8.27
2023-04-18T00:49:49.804Z,8.22
2023-04-18T00:52:18.806Z,8.16
2023-04-18T00:54:47.377Z,8.10
2023-04-18T00:57:14.987Z,8.04
2023-04-18T00:59:42.687Z,7.98
2023-04-18T01:02:09.539Z,7.91
2023-04-18T01:04:37.357Z,7.85
2023-04-18T01:07:05.382Z,7.78
2023-04-18T01:09:32.297Z,7.71
2023-04-18T01:11:59.214Z,7.65
2023-04-18T01:14:26.011Z,7.60
2023-04-18T01:16:53.276Z,7.54
2023-04-18T01:19:20.093Z,7.49
2023-04-18T01:21:47.268Z,7.43
2023-04-18T01:24:16.308Z,7.38
2023-04-18T01:26:49.275Z,7.32
2023-04-18T01:29:16.282Z,7.28
2023-04-18T01:31:43.266Z,7.23
2023-04-18T01:34:10.633Z,7.19
2023-04-18T01:36:39.125Z,7.14
2023-04-18T01:39:07.163Z,7.10
2023-04-18T01:41:34.047Z,7.05
2023-04-18T01:44:01.683Z,6.99
2023-04-18T01:46:29.239Z,6.95
2023-04-18T01:48:57.665Z,6.90
2023-04-18T01:51:24.476Z,6.87
2023-04-18T01:53:53.674Z,6.83
2023-04-18T01:56:20.960Z,6.77
2023-04-18T01:58:47.889Z,6.74
2023-04-18T02:01:14.819Z,6.70
2023-04-18T02:03:41.948Z,6.65
2023-04-18T02:06:10.134Z,6.61
2023-04-18T02:08:37.162Z,6.55
2023-04-18T02:11:06.758Z,6.50
2023-04-18T02:13:33.600Z,6.46
2023-04-18T02:16:00.568Z,6.42
2023-04-18T02:18:27.518Z,6.36
2023-04-18T02:20:54.507Z,6.31
2023-04-18T02:23:22.295Z,6.28
2023-04-18T02:25:49.437Z,6.25
2023-04-18T02:28:17.936Z,6.20
2023-04-18T02:30:44.904Z,6.19
2023-04-18T02:33:11.988Z,6.18
2023-04-18T02:35:40.762Z,6.11
2023-04-18T02:38:09.003Z,6.07
2023-04-18T02:40:35.813Z,6.02
2023-04-18T02:43:02.708Z,6.00
2023-04-18T02:45:29.549Z,5.96
2023-04-18T02:47:59.371Z,5.91
2023-04-18T02:50:27.074Z,5.88
2023-04-18T02:52:55.979Z,5.85
2023-04-18T02:55:26.961Z,5.82
2023-04-18T02:57:57.866Z,5.78
2023-04-18T03:00:44.921Z,5.73
2023-04-18T03:03:32.074Z,5.70
2023-04-18T03:06:16.805Z,5.66
2023-04-18T03:08:43.726Z,5.64
2023-04-18T03:11:10.764Z,5.61
2023-04-18T03:13:37.745Z,5.58
2023-04-18T03:16:05.891Z,5.56
2023-04-18T03:18:33.657Z,5.54
2023-04-18T03:21:01.084Z,5.51
2023-04-18T03:23:30.075Z,5.48
2023-04-18T03:25:58.608Z,5.46
2023-04-18T03:28:27.942Z,5.43
2023-04-18T03:30:54.814Z,5.39
2023-04-18T03:33:22.723Z,5.39
2023-04-18T03:35:54.013Z,5.35
2023-04-18T03:38:21.307Z,5.29
2023-04-18T03:40:49.198Z,5.28
2023-04-18T03:43:23.842Z,5.27
2023-04-18T03:45:52.310Z,5.24
2023-04-18T03:48:19.606Z,5.22
2023-04-18T03:50:47.419Z,5.20
2023-04-18T03:53:15.576Z,5.18
2023-04-18T03:55:43.533Z,5.15
2023-04-18T03:58:13.373Z,5.12
2023-04-18T04:00:40.864Z,5.10
2023-04-18T04:03:11.248Z,5.07
2023-04-18T04:05:39.904Z,5.05
2023-04-18T04:08:06.774Z,5.03
2023-04-18T04:10:34.668Z,5.01
2023-04-18T04:13:01.610Z,4.99
2023-04-18T04:15:30.021Z,4.98
2023-04-18T04:18:02.998Z,4.96
2023-04-18T04:20:31.146Z,4.93
2023-04-18T04:23:07.043Z,4.91
2023-04-18T04:25:35.839Z,4.89
2023-04-18T04:28:08.553Z,4.88
2023-04-18T04:30:46.360Z,4.84
2023-04-18T04:33:13.279Z,4.80
2023-04-18T04:35:40.427Z,4.80
2023-04-18T04:38:08.458Z,4.78
2023-04-18T04:40:43.837Z,4.77
2023-04-18T04:43:15.407Z,4.78
2023-04-18T04:45:44.681Z,4.77
2023-04-18T04:48:12.265Z,4.76
2023-04-18T04:50:41.778Z,4.76
2023-04-18T04:53:11.833Z,4.77
2023-04-18T04:55:39.136Z,4.78
2023-04-18T04:58:05.995Z,4.79
2023-04-18T05:00:53.714Z,4.82
2023-04-18T05:03:21.144Z,4.83
2023-04-18T05:05:48.579Z,4.86
2023-04-18T05:08:15.853Z,4.86
2023-04-18T05:10:43.325Z,4.87
2023-04-18T05:13:10.230Z,4.91
2023-04-18T05:15:37.383Z,4.92
2023-04-18T05:18:04.464Z,4.96
2023-04-18T05:20:31.510Z,4.98
2023-04-18T05:22:58.394Z,5.03
2023-04-18T05:25:25.813Z,5.06
2023-04-18T05:27:52.886Z,5.05
2023-04-18T05:30:19.832Z,5.09
2023-04-18T05:32:46.837Z,5.12
2023-04-18T05:35:14.535Z,5.17
2023-04-18T05:37:41.466Z,5.24
2023-04-18T05:40:09.428Z,5.30
2023-04-18T05:42:36.327Z,5.37
2023-04-18T05:45:03.335Z,5.47
2023-04-18T05:47:30.425Z,5.56
2023-04-18T05:49:57.321Z,5.64
2023-04-18T05:52:26.061Z,5.74
2023-04-18T05:54:53.312Z,5.84
2023-04-18T05:57:20.177Z,5.93
2023-04-18T05:59:47.022Z,6.03
2023-04-18T06:02:14.009Z,6.14
2023-04-18T06:04:43.022Z,6.20
2023-04-18T06:07:10.276Z,6.27
2023-04-18T06:09:37.214Z,6.35
2023-04-18T06:12:04.355Z,6.41
2023-04-18T06:14:31.329Z,6.51
2023-04-18T06:16:58.301Z,6.61
2023-04-18T06:19:25.299Z,6.74
2023-04-18T06:21:53.399Z,6.87
2023-04-18T06:24:20.629Z,7.04
2023-04-18T06:26:47.801Z,7.17
2023-04-18T06:29:14.916Z,7.29
2023-04-18T06:31:42.186Z,7.36
2023-04-18T06:34:09.454Z,7.38
2023-04-18T06:36:36.364Z,7.39
2023-04-18T06:39:03.881Z,7.36
2023-04-18T06:41:31.457Z,7.37
2023-04-18T06:46:28.264Z,7.41
2023-04-18T06:48:55.100Z,7.41
2023-04-18T06:51:21.956Z,7.39
2023-04-18T06:53:52.495Z,7.42
2023-04-18T06:56:22.556Z,7.40
2023-04-18T06:58:50.187Z,7.41
2023-04-18T07:01:17.177Z,7.40
2023-04-18T07:03:44.165Z,7.33
2023-04-18T07:06:11.122Z,7.33
2023-04-18T07:08:38.385Z,7.36
2023-04-18T07:11:06.769Z,7.33
2023-04-18T07:13:33.686Z,7.31
2023-04-18T07:16:01.576Z,7.30
2023-04-18T07:18:37.231Z,7.35
2023-04-18T07:21:08.721Z,7.39
2023-04-18T07:23:36.132Z,7.45
2023-04-18T07:26:05.699Z,7.50
2023-04-18T07:28:33.299Z,7.56
2023-04-18T07:31:01.320Z,7.63
2023-04-18T07:33:31.648Z,7.69
2023-04-18T07:35:58.769Z,7.77
2023-04-18T07:38:25.714Z,7.88
2023-04-18T07:41:00.830Z,7.89
2023-04-18T07:43:27.726Z,7.93
2023-04-18T07:45:54.793Z,7.96
2023-04-18T07:48:22.506Z,8.00
2023-04-18T07:50:49.591Z,8.09
2023-04-18T07:53:17.115Z,8.21
2023-04-18T07:55:44.446Z,8.31
2023-04-18T07:58:11.557Z,8.41
2023-04-18T08:00:39.353Z,8.54
2023-04-18T08:03:12.438Z,8.65
2023-04-18T08:05:41.830Z,8.71
2023-04-18T08:08:11.496Z,8.74
2023-04-18T08:10:38.550Z,8.76
2023-04-18T08:13:07.185Z,8.78
2023-04-18T08:15:34.245Z,8.77
2023-04-18T08:18:01.915Z,8.80
2023-04-18T08:20:29.006Z,8.86
2023-04-18T08:25:31.758Z,9.02
2023-04-18T08:27:58.739Z,9.20
2023-04-18T08:30:25.801Z,9.60
2023-04-18T08:32:52.789Z,10.19
2023-04-18T08:35:19.679Z,10.66
2023-04-18T08:37:46.507Z,10.69
2023-04-18T08:40:13.612Z,10.57
2023-04-18T08:42:46.809Z,10.75
2023-04-18T08:45:14.703Z,11.05
2023-04-18T08:47:42.267Z,11.35
2023-04-18T08:50:10.724Z,11.30
2023-04-18T08:52:40.154Z,11.24
2023-04-18T08:55:09.415Z,11.08
2023-04-18T08:57:36.605Z,11.22
2023-04-18T09:00:10.226Z,11.43
2023-04-18T09:02:45.030Z,11.96
2023-04-18T09:05:20.036Z,12.12
2023-04-18T09:07:53.096Z,12.20
2023-04-18T09:10:34.188Z,11.97
2023-04-18T09:13:05.638Z,11.81
2023-04-18T09:15:32.647Z,12.03
2023-04-18T09:18:03.228Z,12.05
2023-04-18T09:20:44.557Z,11.87
2023-04-18T09:23:21.636Z,11.67
2023-04-18T09:25:51.335Z,11.53
2023-04-18T09:28:27.946Z,11.45
2023-04-18T09:31:11.718Z,11.35
2023-04-18T09:33:43.226Z,11.24
2023-04-18T09:36:29.160Z,11.21
2023-04-18T09:38:57.162Z,11.63
2023-04-18T09:41:24.599Z,11.98
2023-04-18T09:44:14.283Z,12.03
2023-04-18T09:46:45.243Z,12.00
2023-04-18T09:49:14.176Z,11.88
2023-04-18T09:51:43.171Z,11.77
2023-04-18T09:54:15.146Z,11.76
2023-04-18T09:56:45.925Z,11.82
2023-04-18T09:59:21.224Z,11.90
2023-04-18T10:01:50.870Z,11.96
2023-04-18T10:04:19.184Z,11.93
2023-04-18T10:06:46.918Z,11.92
2023-04-18T10:09:16.046Z,11.92
2023-04-18T10:11:44.452Z,11.86
2023-04-18T10:14:16.215Z,11.84
2023-04-18T10:16:45.604Z,11.71
2023-04-18T10:19:27.651Z,11.70
2023-04-18T10:22:00.388Z,11.85
2023-04-18T10:24:49.516Z,11.98
2023-04-18T10:27:18.260Z,12.03
2023-04-18T10:29:53.845Z,12.10
2023-04-18T10:32:23.519Z,12.17
2023-04-18T10:34:53.458Z,12.24
2023-04-18T10:37:20.500Z,12.27
2023-04-18T10:39:58.701Z,12.16
2023-04-18T10:42:52.833Z,11.93
2023-04-18T10:45:24.973Z,11.64
2023-04-18T10:48:25.486Z,11.58
2023-04-18T10:51:18.279Z,11.48
2023-04-18T10:54:09.749Z,11.34
2023-04-18T10:56:36.996Z,11.24
2023-04-18T10:59:04.320Z,11.20
2023-04-18T11:01:33.296Z,11.14
2023-04-18T11:04:11.126Z,11.07
2023-04-18T11:07:07.421Z,10.99
2023-04-18T11:09:34.432Z,11.00
2023-04-18T11:12:11.412Z,11.05
2023-04-18T11:14:49.542Z,11.08
2023-04-18T11:17:20.617Z,11.12
2023-04-18T11:19:48.546Z,11.11
2023-04-18T11:22:17.727Z,11.06
2023-04-18T11:24:45.526Z,11.09
2023-04-18T11:27:12.993Z,11.12
2023-04-18T11:29:40.869Z,11.11
2023-04-18T11:32:09.584Z,11.11
2023-04-18T11:34:36.714Z,11.17
2023-04-18T11:37:07.904Z,11.24
2023-04-18T11:39:40.834Z,11.26
2023-04-18T11:42:08.952Z,11.22
2023-04-18T11:44:39.647Z,11.23
2023-04-18T11:47:30.028Z,11.28
2023-04-18T11:50:06.665Z,11.23
2023-04-18T11:52:35.485Z,11.21
2023-04-18T11:55:21.902Z,11.15
2023-04-18T11:57:57.273Z,11.09
2023-04-18T12:00:39.316Z,11.09
2023-04-18T12:03:15.662Z,11.09
2023-04-18T12:05:43.162Z,11.11
2023-04-18T12:08:11.950Z,11.26
2023-04-18T12:10:51.287Z,11.62
2023-04-18T12:13:26.804Z,12.14
2023-04-18T12:15:54.598Z,12.42
2023-04-18T12:18:23.309Z,12.65
2023-04-18T12:20:54.186Z,12.76
2023-04-18T12:23:40.190Z,12.78
2023-04-18T12:26:12.398Z,12.64
2023-04-18T12:28:39.317Z,12.52
2023-04-18T12:31:09.145Z,12.50
2023-04-18T12:33:36.712Z,12.43
2023-04-18T12:36:05.515Z,12.33
2023-04-18T12:38:32.374Z,12.28
2023-04-18T12:40:59.225Z,12.20
2023-04-18T12:43:26.624Z,12.14
2023-04-18T12:45:53.786Z,12.08
2023-04-18T12:48:20.782Z,12.03
2023-04-18T12:50:47.585Z,12.07
2023-04-18T12:53:14.444Z,12.17
2023-04-18T12:55:41.338Z,12.29
2023-04-18T12:58:08.174Z,12.46
2023-04-18T13:00:35.244Z,12.64
2023-04-18T13:03:02.433Z,12.79
2023-04-18T13:05:33.088Z,12.85
2023-04-18T13:10:31.460Z,12.66
2023-04-18T13:12:58.374Z,12.58
2023-04-18T13:15:26.180Z,12.61
2023-04-18T13:17:56.014Z,12.64
2023-04-18T13:20:23.079Z,12.67
2023-04-18T13:22:49.842Z,12.75
2023-04-18T13:25:17.032Z,12.76
2023-04-18T13:27:45.198Z,12.78
2023-04-18T13:30:12.426Z,12.88
2023-04-18T13:32:40.448Z,12.97
2023-04-18T13:35:08.987Z,13.08
2023-04-18T13:37:36.754Z,13.06
2023-04-18T13:40:06.480Z,13.00
2023-04-18T13:42:38.616Z,12.98
2023-04-18T13:45:05.884Z,13.01
2023-04-18T13:47:32.897Z,13.07
2023-04-18T13:49:59.862Z,13.04
2023-04-18T13:52:26.775Z,12.98
2023-04-18T13:54:53.761Z,12.97
2023-04-18T13:57:21.878Z,12.92
2023-04-18T13:59:50.129Z,12.91
2023-04-18T14:02:17.261Z,12.86
2023-04-18T14:04:44.373Z,12.83
2023-04-18T14:07:11.418Z,12.81
2023-04-18T14:09:38.242Z,12.92
2023-04-18T14:12:06.047Z,13.39
2023-04-18T14:14:32.909Z,13.69
2023-04-18T14:16:59.812Z,13.77
2023-04-18T14:19:27.392Z,13.65
2023-04-18T14:21:54.302Z,13.59
2023-04-18T14:24:21.263Z,13.55
2023-04-18T14:26:48.168Z,13.73
2023-04-18T14:29:15.260Z,14.20
2023-04-18T14:31:42.282Z,14.74
2023-04-18T14:34:09.802Z,15.16
2023-04-18T14:36:37.227Z,15.53
2023-04-18T14:39:04.812Z,15.72
2023-04-18T14:41:31.750Z,15.94
2023-04-18T14:43:59.167Z,15.96
2023-04-18T14:46:28.080Z,16.12
2023-04-18T14:48:55.096Z,16.16
2023-04-18T14:51:22.797Z,15.92
2023-04-18T14:53:49.841Z,15.54
2023-04-18T14:56:20.871Z,15.13
2023-04-18T14:58:47.963Z,14.76
2023-04-18T15:01:14.951Z,14.48
2023-04-18T15:03:41.902Z,14.49
2023-04-18T15:06:08.825Z,14.82
2023-04-18T15:08:36.014Z,15.20
2023-04-18T15:11:08.180Z,15.60
2023-04-18T15:13:35.199Z,15.85
2023-04-18T15:16:02.444Z,16.03
2023-04-18T15:18:29.318Z,16.03
2023-04-18T15:20:57.294Z,15.77
2023-04-18T15:23:24.161Z,15.76
2023-04-18T15:25:50.999Z,15.89
2023-04-18T15:28:18.735Z,15.61
2023-04-18T15:30:46.369Z,15.58
2023-04-18T15:33:13.798Z,15.40
2023-04-18T15:35:40.714Z,15.32
2023-04-18T15:38:07.659Z,15.43
2023-04-18T15:40:36.327Z,15.55
2023-04-18T15:43:04.096Z,15.70
2023-04-18T15:45:31.290Z,15.84
2023-04-18T15:47:58.675Z,15.87
2023-04-18T15:50:26.126Z,16.09
2023-04-18T15:52:56.451Z,16.14
2023-04-18T15:55:23.350Z,16.28
2023-04-18T15:57:50.182Z,16.25
2023-04-18T16:00:17.630Z,16.44
2023-04-18T16:02:46.011Z,16.51
2023-04-18T16:05:15.213Z,16.39
2023-04-18T16:07:42.845Z,16.46
2023-04-18T16:10:11.211Z,16.28
2023-04-18T16:12:39.702Z,16.07
2023-04-18T16:15:09.389Z,15.89
2023-04-18T16:17:39.408Z,15.68
2023-04-18T16:20:09.124Z,15.42
2023-04-18T16:22:37.471Z,15.14
2023-04-18T16:25:05.588Z,15.15
2023-04-18T16:27:33.277Z,15.11
2023-04-18T16:30:00.352Z,15.11
2023-04-18T16:32:27.405Z,15.16
2023-04-18T16:34:54.296Z,15.17
2023-04-18T16:37:21.147Z,15.28
2023-04-18T16:39:48.175Z,15.40
2023-04-18T16:42:15.744Z,15.51
2023-04-18T16:44:44.755Z,15.52
2023-04-18T16:47:11.746Z,15.40
2023-04-18T16:49:38.968Z,15.43
2023-04-18T16:52:05.864Z,15.31
2023-04-18T16:54:32.844Z,14.97
2023-04-18T16:56:59.705Z,14.66
2023-04-18T16:59:26.584Z,14.51
2023-04-18T17:01:53.465Z,14.44
2023-04-18T17:04:21.372Z,14.55
2023-04-18T17:06:49.780Z,14.55
2023-04-18T17:09:19.778Z,14.57
2023-04-18T17:11:46.846Z,14.66
2023-04-18T17:14:14.041Z,14.68
2023-04-18T17:16:42.478Z,14.65
2023-04-18T17:19:10.365Z,14.60
2023-04-18T17:21:38.414Z,14.51
2023-04-18T17:24:07.052Z,14.21
2023-04-18T17:26:35.447Z,13.99
2023-04-18T17:29:04.128Z,13.83
2023-04-18T17:31:31.801Z,13.69
2023-04-18T17:33:59.610Z,13.57
2023-04-18T17:36:27.256Z,13.54
2023-04-18T17:38:54.170Z,13.46
2023-04-18T17:41:22.085Z,13.33
2023-04-18T17:43:53.340Z,13.23
2023-04-18T17:46:20.379Z,13.14
2023-04-18T17:48:47.332Z,13.04
2023-04-18T17:51:16.261Z,12.95
2023-04-18T17:53:43.293Z,12.86
2023-04-18T17:56:10.813Z,12.80
2023-04-18T17:58:37.648Z,12.76
2023-04-18T18:01:17.108Z,12.68
2023-04-18T18:03:44.943Z,12.60
2023-04-18T18:06:13.245Z,12.56
2023-04-18T18:08:42.548Z,12.49
2023-04-18T18:11:10.721Z,12.41
2023-04-18T18:13:39.071Z,12.33
2023-04-18T18:16:07.620Z,12.26
2023-04-18T18:18:35.016Z,12.19
2023-04-18T18:21:01.870Z,12.14
2023-04-18T18:23:29.359Z,12.08
2023-04-18T18:25:56.255Z,12.00
2023-04-18T18:28:23.122Z,11.94
2023-04-18T18:30:49.905Z,11.90
2023-04-18T18:33:16.808Z,11.84
2023-04-18T18:35:43.657Z,11.78
2023-04-18T18:38:10.494Z,11.72
2023-04-18T18:40:37.497Z,11.70
2023-04-18T18:43:04.283Z,11.65
2023-04-18T18:45:31.325Z,11.60
2023-04-18T18:47:58.425Z,11.55
2023-04-18T18:50:25.489Z,11.51
2023-04-18T18:52:52.396Z,11.46
2023-04-18T18:55:19.222Z,11.42
2023-04-18T18:57:46.682Z,11.35
2023-04-18T19:00:14.326Z,11.31
2023-04-18T19:02:41.390Z,11.26
2023-04-18T19:05:08.893Z,11.22
2023-04-18T19:07:35.724Z,11.17
2023-04-18T19:10:03.484Z,11.12
2023-04-18T19:12:30.363Z,11.07
2023-04-18T19:14:57.343Z,11.02
2023-04-18T19:17:24.863Z,10.99
2023-04-18T19:19:53.305Z,10.96
2023-04-18T19:22:20.303Z,10.92
2023-04-18T19:24:48.018Z,10.87
2023-04-18T19:27:14.877Z,10.83
2023-04-18T19:29:41.779Z,10.79
2023-04-18T19:32:08.806Z,10.76
2023-04-18T19:34:36.251Z,10.75
2023-04-18T19:37:03.727Z,10.71
2023-04-18T19:39:30.708Z,10.69
2023-04-18T19:41:57.542Z,10.67
2023-04-18T19:44:24.382Z,10.67
2023-04-18T19:46:51.184Z,10.65
2023-04-18T19:49:18.028Z,10.63
2023-04-18T19:51:44.806Z,10.61
2023-04-18T19:54:11.651Z,10.58
2023-04-18T19:56:38.498Z,10.59
2023-04-18T19:59:06.203Z,10.56
2023-04-18T20:01:33.116Z,10.54
2023-04-18T20:04:00.604Z,10.52
2023-04-18T20:06:27.955Z,10.50
2023-04-18T20:08:54.939Z,10.49
2023-04-18T20:11:22.189Z,10.48
2023-04-18T20:13:49.387Z,10.46
2023-04-18T20:16:17.348Z,10.42
2023-04-18T20:18:47.285Z,10.42
2023-04-18T20:21:14.297Z,10.40
2023-04-18T20:23:45.443Z,10.39
2023-04-18T20:26:12.477Z,10.39
2023-04-18T20:28:39.556Z,10.39
2023-04-18T20:31:07.143Z,10.41
2023-04-18T20:33:34.385Z,10.38
2023-04-18T20:36:01.778Z,10.38
2023-04-18T20:38:29.683Z,10.36
2023-04-18T20:40:58.977Z,10.33
2023-04-18T20:43:26.797Z,10.29
2023-04-18T20:45:54.549Z,10.28
2023-04-18T20:48:21.467Z,10.25
2023-04-18T20:50:51.327Z,10.22
2023-04-18T20:53:26.075Z,10.20
2023-04-18T20:55:53.191Z,10.18
2023-04-18T20:58:20.040Z,10.15
2023-04-18T21:00:48.333Z,10.14
2023-04-18T21:03:16.786Z,10.09
2023-04-18T21:05:44.877Z,10.08
2023-04-18T21:08:14.719Z,10.07
2023-04-18T21:10:41.562Z,10.03
2023-04-18T21:13:09.272Z,10.03
2023-04-18T21:15:36.481Z,10.00
2023-04-18T21:18:03.499Z,9.97
2023-04-18T21:20:30.505Z,9.94
2023-04-18T21:22:57.345Z,9.90
2023-04-18T21:25:24.136Z,9.87
2023-04-18T21:27:51.330Z,9.83
2023-04-18T21:30:18.515Z,9.80
2023-04-18T21:32:47.223Z,9.75
2023-04-18T21:35:15.019Z,9.69
2023-04-18T21:37:42.889Z,9.66
2023-04-18T21:40:10.334Z,9.63
2023-04-18T21:42:37.579Z,9.58
2023-04-18T21:45:06.263Z,9.53
2023-04-18T21:47:33.219Z,9.49
2023-04-18T21:50:00.164Z,9.47
2023-04-18T21:52:26.988Z,9.42
2023-04-18T21:54:53.836Z,9.39
2023-04-18T21:57:21.020Z,9.36
2023-04-18T21:59:47.887Z,9.31
2023-04-18T22:02:14.802Z,9.29
2023-04-18T22:04:42.794Z,9.23
2023-04-18T22:07:11.480Z,9.22
2023-04-18T22:09:38.535Z,9.18
2023-04-18T22:12:05.574Z,9.16
2023-04-18T22:14:32.421Z,9.14
2023-04-18T22:17:01.772Z,9.14
2023-04-18T22:19:29.493Z,9.10
2023-04-18T22:21:56.547Z,9.07
2023-04-18T22:24:24.646Z,9.04
2023-04-18T22:26:52.393Z,9.03
2023-04-18T22:29:19.263Z,9.01
2023-04-18T22:31:46.205Z,8.99
2023-04-18T22:34:13.248Z,8.98
2023-04-18T22:36:40.632Z,8.97
2023-04-18T22:39:07.501Z,8.96
2023-04-18T22:41:34.316Z,8.93
2023-04-18T22:44:01.093Z,8.91
2023-04-18T22:46:28.069Z,8.88
2023-04-18T22:48:55.252Z,8.85
2023-04-18T22:51:23.436Z,8.84
2023-04-18T22:53:50.322Z,8.85
2023-04-18T22:56:17.161Z,8.85
2023-04-18T22:58:43.986Z,8.91
2023-04-18T23:01:10.854Z,8.94
2023-04-18T23:03:37.839Z,9.02
2023-04-18T23:06:08.088Z,9.10
2023-04-18T23:08:35.045Z,9.16
2023-04-18T23:11:01.874Z,9.20
2023-04-18T23:13:28.708Z,9.23
2023-04-18T23:15:55.563Z,9.29
2023-04-18T23:18:22.394Z,9.34
2023-04-18T23:20:49.219Z,9.40
2023-04-18T23:23:16.099Z,9.47
2023-04-18T23:25:44.116Z,9.53
2023-04-18T23:28:10.969Z,9.58
2023-04-18T23:30:37.864Z,9.62
2023-04-18T23:33:05.934Z,9.64
2023-04-18T23:35:32.807Z,9.67
2023-04-18T23:37:59.784Z,9.71
2023-04-18T23:40:26.620Z,9.73
2023-04-18T23:42:53.489Z,9.77
2023-04-18T23:45:20.339Z,9.77
2023-04-18T23:47:47.226Z,9.80
2023-04-18T23:50:14.066Z,9.84
2023-04-18T23:52:40.994Z,9.86
2023-04-18T23:55:08.607Z,9.89
2023-04-18T23:57:35.601Z,9.92
